createdAt,value
2018-12-19T00:01:46.356Z,20.63
2018-12-19T00:04:14.745Z,21.33
2018-12-19T00:06:43.278Z,21.13
2018-12-19T00:09:11.673Z,19.07
2018-12-19T00:11:40.079Z,19.20
2018-12-19T00:14:08.464Z,21.20
2018-12-19T00:16:36.888Z,21.03
2018-12-19T00:19:05.390Z,21.27
2018-12-19T00:21:33.796Z,21.77
2018-12-19T00:24:02.209Z,22.73
2018-12-19T00:26:30.611Z,19.47
2018-12-19T00:28:59.039Z,19.03
2018-12-19T00:31:27.440Z,22.07
2018-12-19T00:33:56.153Z,21.93
2018-12-19T00:36:24.556Z,22.07
2018-12-19T00:38:52.983Z,22.60
2018-12-19T00:41:21.365Z,21.10
2018-12-19T00:43:49.770Z,20.43
2018-12-19T00:46:18.169Z,19.83
2018-12-19T00:48:46.582Z,19.67
2018-12-19T00:51:15.005Z,20.40
2018-12-19T00:53:43.418Z,22.50
2018-12-19T00:56:11.833Z,20.23
2018-12-19T00:58:40.222Z,21.40
2018-12-19T01:01:08.625Z,22.13
2018-12-19T01:03:37.561Z,21.63
2018-12-19T01:06:06.073Z,22.93
2018-12-19T01:08:34.461Z,19.57
2018-12-19T01:11:02.871Z,21.37
2018-12-19T01:13:31.269Z,19.90
2018-12-19T01:15:59.681Z,22.23
2018-12-19T01:18:28.081Z,23.33
2018-12-19T01:20:56.497Z,23.43
2018-12-19T01:23:24.892Z,21.07
2018-12-19T01:25:53.301Z,22.10
2018-12-19T01:28:21.700Z,21.53
2018-12-19T01:30:50.125Z,21.40
2018-12-19T01:33:18.525Z,21.97
2018-12-19T01:35:47.002Z,22.53
2018-12-19T01:38:15.449Z,22.97
2018-12-19T01:40:43.869Z,26.57
2018-12-19T01:43:12.269Z,23.17
2018-12-19T01:45:40.672Z,23.73
2018-12-19T01:48:09.101Z,22.50
2018-12-19T01:50:37.529Z,23.87
2018-12-19T01:53:05.916Z,25.13
2018-12-19T01:55:34.342Z,24.23
2018-12-19T01:58:02.748Z,25.33
2018-12-19T02:00:32.645Z,20.87
2018-12-19T02:03:01.653Z,23.30
2018-12-19T02:05:30.121Z,21.83
2018-12-19T02:07:58.501Z,24.47
2018-12-19T02:10:27.041Z,18.87
2018-12-19T02:12:55.437Z,19.40
2018-12-19T02:15:23.836Z,17.03
2018-12-19T02:17:52.318Z,17.17
2018-12-19T02:20:20.784Z,16.63
2018-12-19T02:22:49.176Z,15.57
2018-12-19T02:25:17.592Z,13.13
2018-12-19T02:27:45.984Z,13.47
2018-12-19T02:30:14.380Z,14.67
2018-12-19T02:32:42.791Z,14.30
2018-12-19T02:35:11.172Z,13.33
2018-12-19T02:37:39.554Z,13.33
2018-12-19T02:40:08.114Z,11.67
2018-12-19T02:42:36.513Z,13.43
2018-12-19T02:45:05.264Z,13.93
2018-12-19T02:47:33.673Z,13.43
2018-12-19T02:50:02.199Z,12.80
2018-12-19T02:52:30.715Z,14.43
2018-12-19T02:54:59.134Z,12.33
2018-12-19T02:57:27.518Z,11.43
2018-12-19T02:59:55.910Z,12.40
2018-12-19T03:02:24.317Z,11.67
2018-12-19T03:04:52.710Z,13.30
2018-12-19T03:07:21.096Z,16.43
2018-12-19T03:09:49.517Z,14.67
2018-12-19T03:12:17.906Z,11.20
2018-12-19T03:14:46.313Z,13.43
2018-12-19T03:17:14.736Z,12.70
2018-12-19T03:19:43.136Z,13.37
2018-12-19T03:22:11.529Z,12.70
2018-12-19T03:24:39.949Z,12.47
2018-12-19T03:27:08.345Z,12.00
2018-12-19T03:29:36.732Z,12.43
2018-12-19T03:32:05.177Z,16.70
2018-12-19T03:34:33.569Z,15.83
2018-12-19T03:37:01.961Z,16.20
2018-12-19T03:39:30.397Z,15.37
2018-12-19T03:41:58.781Z,14.73
2018-12-19T03:44:27.173Z,15.93
2018-12-19T03:46:55.598Z,15.73
2018-12-19T03:49:24.117Z,16.07
2018-12-19T03:51:52.654Z,14.57
2018-12-19T03:54:21.296Z,15.60
2018-12-19T03:56:50.023Z,15.87
2018-12-19T03:59:18.424Z,16.63
2018-12-19T04:01:46.845Z,13.70
2018-12-19T04:04:15.240Z,15.70
2018-12-19T04:06:43.651Z,15.57
2018-12-19T04:09:12.066Z,17.97
2018-12-19T04:11:40.465Z,14.47
2018-12-19T04:14:08.878Z,15.00
2018-12-19T04:16:37.280Z,15.60
2018-12-19T04:19:05.693Z,18.00
2018-12-19T04:21:34.081Z,17.70
2018-12-19T04:24:02.484Z,14.53
2018-12-19T04:26:30.876Z,15.47
2018-12-19T04:28:59.307Z,13.10
2018-12-19T04:31:27.713Z,14.40
2018-12-19T04:33:56.135Z,15.97
2018-12-19T04:36:24.528Z,15.47
2018-12-19T04:38:53.056Z,14.73
2018-12-19T04:41:21.449Z,13.83
2018-12-19T04:43:49.865Z,15.47
2018-12-19T04:46:18.249Z,14.03
2018-12-19T04:48:46.644Z,16.00
2018-12-19T04:51:15.053Z,13.30
2018-12-19T04:53:43.475Z,14.20
2018-12-19T04:56:11.887Z,11.43
2018-12-19T04:58:40.293Z,12.53
2018-12-19T05:01:08.685Z,12.40
2018-12-19T05:03:37.104Z,13.50
2018-12-19T05:06:05.501Z,11.37
2018-12-19T05:08:33.904Z,11.47
2018-12-19T05:11:02.289Z,11.80
2018-12-19T05:13:30.722Z,12.30
2018-12-19T05:15:59.115Z,10.20
2018-12-19T05:18:27.526Z,10.63
2018-12-19T05:20:55.954Z,11.53
2018-12-19T05:23:24.365Z,11.60
2018-12-19T05:25:52.782Z,9.60
2018-12-19T05:28:21.168Z,9.80
2018-12-19T05:30:49.557Z,10.17
2018-12-19T05:33:17.955Z,8.33
2018-12-19T05:35:46.332Z,7.33
2018-12-19T05:38:14.741Z,7.80
2018-12-19T05:40:43.121Z,8.73
2018-12-19T05:43:11.531Z,7.03
2018-12-19T05:45:39.945Z,6.93
2018-12-19T05:48:08.349Z,9.07
2018-12-19T05:50:36.957Z,7.13
2018-12-19T05:53:05.509Z,6.67
2018-12-19T05:55:33.897Z,8.03
2018-12-19T05:58:02.300Z,6.27
2018-12-19T06:00:30.682Z,6.33
2018-12-19T06:02:59.113Z,7.47
2018-12-19T06:05:27.518Z,6.13
2018-12-19T06:07:56.029Z,6.37
2018-12-19T06:10:26.318Z,7.30
2018-12-19T06:12:54.875Z,5.83
2018-12-19T06:15:23.265Z,5.30
2018-12-19T06:17:51.681Z,6.13
2018-12-19T06:20:20.208Z,6.23
2018-12-19T06:22:48.624Z,7.17
2018-12-19T06:25:17.027Z,6.20
2018-12-19T06:27:45.544Z,6.07
2018-12-19T06:30:14.376Z,6.30
2018-12-19T06:32:43.000Z,5.07
2018-12-19T06:35:11.397Z,7.17
2018-12-19T06:37:39.812Z,6.10
2018-12-19T06:40:08.660Z,6.93
2018-12-19T06:42:37.088Z,8.10
2018-12-19T06:45:07.196Z,6.33
2018-12-19T06:47:35.609Z,8.20
2018-12-19T06:50:04.472Z,8.07
2018-12-19T06:52:32.898Z,5.43
2018-12-19T06:55:01.285Z,6.60
2018-12-19T06:57:29.688Z,6.57
2018-12-19T06:59:58.089Z,9.67
2018-12-19T07:02:26.492Z,7.83
2018-12-19T07:04:54.900Z,8.13
2018-12-19T07:07:23.316Z,6.27
2018-12-19T07:09:51.713Z,10.33
2018-12-19T07:12:20.155Z,14.87
2018-12-19T07:14:48.592Z,6.83
2018-12-19T07:17:17.083Z,6.80
2018-12-19T07:19:47.645Z,6.50
2018-12-19T07:22:17.213Z,5.87
2018-12-19T07:24:45.605Z,8.60
2018-12-19T07:27:14.084Z,6.63
2018-12-19T07:29:42.517Z,6.13
2018-12-19T07:32:10.924Z,9.10
2018-12-19T07:34:44.199Z,5.17
2018-12-19T07:37:09.912Z,5.07
2018-12-19T07:39:38.299Z,7.43
2018-12-19T07:42:06.765Z,4.47
2018-12-19T07:44:35.348Z,7.17
2018-12-19T07:47:03.762Z,6.33
2018-12-19T07:49:32.157Z,4.00
2018-12-19T07:52:00.597Z,3.63
2018-12-19T07:54:29.010Z,4.47
2018-12-19T07:56:58.059Z,3.57
2018-12-19T07:59:26.529Z,5.57
2018-12-19T08:01:54.953Z,6.40
2018-12-19T08:04:23.415Z,9.13
2018-12-19T08:06:52.505Z,10.93
2018-12-19T08:09:21.309Z,10.47
2018-12-19T08:11:49.705Z,13.83
2018-12-19T08:14:18.197Z,9.77
2018-12-19T08:16:46.598Z,8.60
2018-12-19T08:19:15.015Z,10.27
2018-12-19T08:21:43.425Z,5.57
2018-12-19T08:24:11.972Z,8.47
2018-12-19T08:26:40.385Z,10.57
2018-12-19T08:29:08.801Z,10.13
2018-12-19T08:31:37.274Z,6.87
2018-12-19T08:34:06.308Z,6.33
2018-12-19T08:36:34.705Z,7.40
2018-12-19T08:39:05.404Z,10.90
2018-12-19T08:41:33.784Z,6.33
2018-12-19T08:44:02.194Z,6.73
2018-12-19T08:46:30.588Z,4.00
2018-12-19T08:48:58.986Z,7.23
2018-12-19T08:51:27.370Z,6.27
2018-12-19T08:53:55.787Z,9.23
2018-12-19T08:56:24.166Z,8.10
2018-12-19T08:58:52.596Z,12.50
2018-12-19T09:01:20.982Z,13.37
2018-12-19T09:03:49.401Z,11.43
2018-12-19T09:06:18.344Z,9.73
2018-12-19T09:08:46.751Z,10.83
2018-12-19T09:11:15.240Z,12.43
2018-12-19T09:13:43.776Z,7.77
2018-12-19T09:16:12.158Z,12.00
2018-12-19T09:18:40.564Z,11.87
2018-12-19T09:21:08.949Z,9.53
2018-12-19T09:23:37.340Z,7.27
2018-12-19T09:26:05.737Z,8.07
2018-12-19T09:28:34.148Z,8.47
2018-12-19T09:31:02.520Z,8.33
2018-12-19T09:33:30.929Z,7.77
2018-12-19T09:35:59.313Z,12.20
2018-12-19T09:38:27.709Z,8.70
2018-12-19T09:40:56.092Z,9.33
2018-12-19T09:43:24.492Z,9.00
2018-12-19T09:45:52.880Z,14.63
2018-12-19T09:48:21.285Z,10.07
2018-12-19T09:50:49.682Z,10.90
2018-12-19T09:53:18.604Z,9.73
2018-12-19T09:55:49.034Z,15.57
2018-12-19T09:58:17.449Z,10.53
2018-12-19T10:00:45.832Z,9.23
2018-12-19T10:03:14.229Z,7.43
2018-12-19T10:05:42.714Z,5.87
2018-12-19T10:08:11.213Z,8.67
2018-12-19T10:10:39.605Z,5.20
2018-12-19T10:13:08.010Z,5.67
2018-12-19T10:15:36.381Z,6.20
2018-12-19T10:18:04.943Z,11.03
2018-12-19T10:20:33.381Z,12.67
2018-12-19T10:23:01.788Z,8.73
2018-12-19T10:25:30.216Z,9.10
2018-12-19T10:27:58.748Z,7.20
2018-12-19T10:30:27.194Z,7.53
2018-12-19T10:32:55.625Z,12.00
2018-12-19T10:35:25.169Z,8.97
2018-12-19T10:37:53.586Z,10.00
2018-12-19T10:40:22.005Z,14.67
2018-12-19T10:42:50.429Z,11.23
2018-12-19T10:45:18.850Z,14.90
2018-12-19T10:47:47.331Z,8.40
2018-12-19T10:50:15.792Z,7.93
2018-12-19T10:52:44.212Z,8.43
2018-12-19T10:55:12.648Z,18.03
2018-12-19T10:57:41.152Z,8.93
2018-12-19T11:00:17.929Z,9.67
2018-12-19T11:02:46.612Z,6.17
2018-12-19T11:05:15.025Z,9.93
2018-12-19T11:07:43.401Z,8.57
2018-12-19T11:10:11.800Z,8.20
2018-12-19T11:12:40.186Z,9.37
2018-12-19T11:15:10.456Z,5.40
2018-12-19T11:17:39.126Z,10.43
2018-12-19T11:20:09.886Z,10.20
2018-12-19T11:22:38.380Z,10.40
2018-12-19T11:25:07.358Z,11.67
2018-12-19T11:27:35.745Z,7.87
2018-12-19T11:30:05.343Z,10.83
2018-12-19T11:32:33.756Z,11.23
2018-12-19T11:35:02.192Z,10.07
2018-12-19T11:37:30.608Z,8.67
2018-12-19T11:39:59.132Z,8.17
2018-12-19T11:42:27.664Z,7.50
2018-12-19T11:44:56.857Z,8.63
2018-12-19T11:47:25.673Z,8.20
2018-12-19T11:49:54.095Z,5.27
2018-12-19T11:52:22.488Z,10.07
2018-12-19T11:54:50.890Z,11.87
2018-12-19T11:57:19.421Z,7.67
2018-12-19T11:59:47.817Z,17.20
2018-12-19T12:02:16.305Z,9.27
2018-12-19T12:04:44.765Z,8.77
2018-12-19T12:07:13.383Z,11.27
2018-12-19T12:09:41.872Z,11.47
2018-12-19T12:12:10.441Z,12.57
2018-12-19T12:14:38.973Z,16.10
2018-12-19T12:17:08.797Z,12.47
2018-12-19T12:19:37.382Z,11.07
2018-12-19T12:22:05.992Z,17.17
2018-12-19T12:24:34.485Z,12.30
2018-12-19T12:27:02.881Z,12.27
2018-12-19T12:29:31.289Z,12.80
2018-12-19T12:31:59.670Z,11.03
2018-12-19T12:34:28.089Z,10.63
2018-12-19T12:36:56.476Z,10.13
2018-12-19T12:39:24.920Z,13.07
2018-12-19T12:41:53.649Z,14.77
2018-12-19T12:44:22.074Z,11.83
2018-12-19T12:46:50.493Z,12.63
2018-12-19T12:49:18.909Z,10.40
2018-12-19T12:51:47.288Z,14.50
2018-12-19T12:54:15.689Z,14.00
2018-12-19T12:56:44.101Z,9.70
2018-12-19T12:59:12.611Z,10.60
2018-12-19T13:01:40.985Z,7.87
2018-12-19T13:04:09.395Z,10.13
2018-12-19T13:06:37.772Z,8.30
2018-12-19T13:09:10.889Z,11.83
2018-12-19T13:11:39.396Z,12.20
2018-12-19T13:14:07.861Z,9.67
2018-12-19T13:16:36.272Z,14.67
2018-12-19T13:19:04.685Z,9.37
2018-12-19T13:21:33.392Z,11.10
2018-12-19T13:24:02.856Z,9.00
2018-12-19T13:26:31.245Z,8.87
2018-12-19T13:28:59.644Z,9.97
2018-12-19T13:31:28.036Z,13.27
2018-12-19T13:33:56.461Z,12.90
2018-12-19T13:36:24.843Z,18.20
2018-12-19T13:38:54.334Z,16.63
2018-12-19T13:41:22.780Z,14.87
2018-12-19T13:43:51.192Z,21.00
2018-12-19T13:46:19.574Z,14.27
2018-12-19T13:48:47.972Z,8.93
2018-12-19T13:51:16.473Z,16.67
2018-12-19T13:53:44.894Z,14.57
2018-12-19T13:56:13.392Z,13.60
2018-12-19T13:58:42.244Z,10.83
2018-12-19T14:01:10.651Z,10.17
2018-12-19T14:03:39.144Z,9.67
2018-12-19T14:06:07.536Z,11.70
2018-12-19T14:08:35.970Z,11.63
2018-12-19T14:11:04.485Z,12.30
2018-12-19T14:13:32.888Z,8.43
2018-12-19T14:16:01.272Z,10.00
2018-12-19T14:18:29.673Z,13.07
2018-12-19T14:20:58.072Z,9.47
2018-12-19T14:23:26.672Z,15.23
2018-12-19T14:25:55.057Z,8.70
2018-12-19T14:28:23.469Z,7.57
2018-12-19T14:30:51.966Z,8.40
2018-12-19T14:33:20.368Z,10.50
2018-12-19T14:35:48.972Z,10.43
2018-12-19T14:38:17.387Z,9.07
2018-12-19T14:40:45.800Z,11.07
2018-12-19T14:43:14.333Z,12.53
2018-12-19T14:45:42.864Z,14.20
2018-12-19T14:48:11.265Z,11.90
2018-12-19T14:50:39.736Z,11.07
2018-12-19T14:53:08.160Z,11.63
2018-12-19T14:55:36.561Z,12.33
2018-12-19T14:58:05.125Z,9.70
2018-12-19T15:00:33.753Z,10.03
2018-12-19T15:03:02.159Z,8.40
2018-12-19T15:05:31.533Z,10.40
2018-12-19T15:07:59.939Z,10.37
2018-12-19T15:10:28.398Z,11.17
2018-12-19T15:12:56.921Z,10.47
2018-12-19T15:15:25.359Z,14.50
2018-12-19T15:17:53.753Z,9.40
2018-12-19T15:20:22.136Z,10.87
2018-12-19T15:22:50.667Z,8.33
2018-12-19T15:25:19.176Z,11.00
2018-12-19T15:27:47.589Z,11.37
2018-12-19T15:30:16.009Z,11.07
2018-12-19T15:32:44.551Z,10.83
2018-12-19T15:35:13.152Z,9.93
2018-12-19T15:37:41.542Z,10.57
2018-12-19T15:40:10.160Z,14.63
2018-12-19T15:42:38.536Z,9.63
2018-12-19T15:45:07.150Z,9.87
2018-12-19T15:47:35.527Z,10.07
2018-12-19T15:50:04.716Z,8.50
2018-12-19T15:52:33.094Z,9.60
2018-12-19T15:55:01.492Z,11.50
2018-12-19T15:57:29.881Z,11.27
2018-12-19T15:59:58.272Z,7.97
2018-12-19T16:02:26.672Z,9.87
2018-12-19T16:04:55.077Z,10.17
2018-12-19T16:07:23.464Z,13.83
2018-12-19T16:09:51.856Z,9.93
2018-12-19T16:12:20.245Z,10.73
2018-12-19T16:14:48.681Z,10.47
2018-12-19T16:17:17.065Z,10.63
2018-12-19T16:19:45.461Z,11.17
2018-12-19T16:22:13.840Z,11.33
2018-12-19T16:24:42.274Z,14.37
2018-12-19T16:27:10.656Z,9.23
2018-12-19T16:29:39.060Z,12.57
2018-12-19T16:32:07.469Z,15.90
2018-12-19T16:34:35.877Z,14.23
2018-12-19T16:37:04.302Z,11.93
2018-12-19T16:39:32.816Z,8.67
2018-12-19T16:42:01.192Z,13.27
2018-12-19T16:44:29.611Z,8.20
2018-12-19T16:46:58.000Z,8.37
2018-12-19T16:49:26.436Z,10.17
2018-12-19T16:51:54.829Z,9.33
2018-12-19T16:54:23.317Z,12.47
2018-12-19T16:56:51.736Z,10.00
2018-12-19T16:59:20.177Z,8.50
2018-12-19T17:01:48.809Z,9.10
2018-12-19T17:04:17.277Z,12.83
2018-12-19T17:06:45.659Z,10.17
2018-12-19T17:09:14.090Z,8.30
2018-12-19T17:11:42.472Z,7.13
2018-12-19T17:14:10.866Z,10.90
2018-12-19T17:16:40.348Z,11.13
2018-12-19T17:19:09.797Z,14.20
2018-12-19T17:21:38.648Z,13.03
2018-12-19T17:24:07.052Z,11.77
2018-12-19T17:26:35.497Z,15.87
2018-12-19T17:29:04.004Z,10.73
2018-12-19T17:31:32.408Z,9.97
2018-12-19T17:34:00.900Z,11.70
2018-12-19T17:36:29.345Z,9.03
2018-12-19T17:38:57.754Z,10.07
2018-12-19T17:41:26.179Z,15.30
2018-12-19T17:43:54.570Z,12.97
2018-12-19T17:46:23.193Z,8.73
2018-12-19T17:48:51.729Z,9.53
2018-12-19T17:51:20.137Z,9.77
2018-12-19T17:53:48.528Z,8.20
2018-12-19T17:56:16.965Z,11.57
2018-12-19T17:58:45.345Z,9.53
2018-12-19T18:01:13.812Z,15.33
2018-12-19T18:03:42.215Z,19.37
2018-12-19T18:06:10.695Z,16.20
2018-12-19T18:08:40.426Z,10.13
2018-12-19T18:11:08.854Z,12.83
2018-12-19T18:13:37.249Z,12.23
2018-12-19T18:16:05.734Z,9.97
2018-12-19T18:18:34.248Z,10.60
2018-12-19T18:21:02.706Z,11.80
2018-12-19T18:23:31.099Z,10.70
2018-12-19T18:25:59.622Z,9.30
2018-12-19T18:28:28.013Z,11.00
2018-12-19T18:30:56.644Z,9.80
2018-12-19T18:33:25.076Z,9.10
2018-12-19T18:35:53.472Z,8.33
2018-12-19T18:38:21.907Z,10.43
2018-12-19T18:42:20.480Z,11.30
2018-12-19T18:44:49.025Z,10.33
2018-12-19T18:47:18.622Z,11.23
2018-12-19T18:49:47.024Z,12.13
2018-12-19T18:52:15.519Z,8.97
2018-12-19T18:54:44.048Z,11.60
2018-12-19T18:57:13.299Z,8.27
2018-12-19T18:59:41.952Z,11.13
2018-12-19T19:02:10.399Z,10.40
2018-12-19T19:04:38.940Z,8.93
2018-12-19T19:07:07.421Z,10.30
2018-12-19T19:09:36.109Z,9.33
2018-12-19T19:12:04.518Z,8.63
2018-12-19T19:14:33.020Z,9.47
2018-12-19T19:17:01.404Z,10.17
2018-12-19T19:19:29.932Z,10.63
2018-12-19T19:21:58.351Z,11.73
2018-12-19T19:24:26.775Z,10.17
2018-12-19T19:26:55.200Z,10.60
2018-12-19T19:29:23.651Z,10.50
2018-12-19T19:31:52.157Z,9.90
2018-12-19T19:34:25.052Z,9.57
2018-12-19T19:36:51.133Z,13.27
2018-12-19T19:39:19.558Z,10.73
2018-12-19T19:41:48.024Z,13.03
2018-12-19T19:44:16.477Z,12.73
2018-12-19T19:46:45.588Z,10.90
2018-12-19T19:49:14.229Z,11.70
2018-12-19T19:51:42.617Z,13.33
2018-12-19T19:54:11.107Z,26.03
2018-12-19T19:56:39.588Z,17.80
2018-12-19T19:59:08.021Z,22.40
2018-12-19T20:01:36.696Z,16.07
2018-12-19T20:04:05.497Z,14.53
2018-12-19T20:06:34.066Z,12.33
2018-12-19T20:09:02.524Z,14.73
2018-12-19T20:11:31.014Z,15.77
2018-12-19T20:13:59.520Z,11.77
2018-12-19T20:16:27.904Z,12.67
2018-12-19T20:18:56.313Z,17.90
2018-12-19T20:21:24.692Z,12.00
2018-12-19T20:23:53.105Z,14.67
2018-12-19T20:26:21.501Z,17.53
2018-12-19T20:28:49.901Z,19.43
2018-12-19T20:31:18.407Z,39.17
2018-12-19T20:33:46.868Z,27.53
2018-12-19T20:36:16.345Z,17.60
2018-12-19T20:38:44.745Z,19.60
2018-12-19T20:41:13.169Z,17.10
2018-12-19T20:43:41.601Z,13.93
2018-12-19T20:46:10.016Z,13.30
2018-12-19T20:48:38.467Z,12.50
2018-12-19T20:51:07.126Z,16.23
2018-12-19T20:53:35.531Z,13.50
2018-12-19T20:56:04.181Z,15.50
2018-12-19T20:58:32.685Z,16.50
2018-12-19T21:01:01.336Z,15.87
2018-12-19T21:03:29.772Z,17.57
2018-12-19T21:05:58.220Z,12.93
2018-12-19T21:08:26.744Z,14.00
2018-12-19T21:10:55.179Z,13.00
2018-12-19T21:13:23.567Z,13.00
2018-12-19T21:15:52.275Z,14.23
2018-12-19T21:18:25.905Z,14.70
2018-12-19T21:20:54.321Z,16.00
2018-12-19T21:23:22.733Z,13.93
2018-12-19T21:25:51.140Z,15.90
2018-12-19T21:28:20.188Z,17.63
2018-12-19T21:30:48.613Z,17.43
2018-12-19T21:33:17.146Z,18.50
2018-12-19T21:35:45.590Z,17.97
2018-12-19T21:38:14.116Z,16.53
2018-12-19T21:40:42.620Z,15.40
2018-12-19T21:43:11.445Z,15.17
2018-12-19T21:45:39.952Z,15.10
2018-12-19T21:48:08.417Z,22.37
2018-12-19T21:50:37.144Z,18.90
2018-12-19T21:53:05.639Z,17.60
2018-12-19T21:55:34.125Z,19.07
2018-12-19T21:58:02.848Z,18.60
2018-12-19T22:00:37.614Z,28.33
2018-12-19T22:03:07.317Z,21.17
2018-12-19T22:05:37.947Z,18.27
2018-12-19T22:08:06.496Z,21.93
2018-12-19T22:10:35.277Z,22.30
2018-12-19T22:13:04.034Z,20.07
2018-12-19T22:15:32.632Z,18.23
2018-12-19T22:18:06.514Z,16.70
2018-12-19T22:20:35.577Z,14.70
2018-12-19T22:23:05.478Z,16.03
2018-12-19T22:25:34.069Z,16.03
2018-12-19T22:28:02.560Z,18.27
2018-12-19T22:30:33.042Z,14.10
2018-12-19T22:33:01.553Z,21.90
2018-12-19T22:35:30.534Z,16.23
2018-12-19T22:37:59.152Z,17.33
2018-12-19T22:40:27.726Z,15.43
2018-12-19T22:42:56.371Z,15.67
2018-12-19T22:45:24.911Z,15.87
2018-12-19T22:47:53.457Z,15.90
2018-12-19T22:50:22.101Z,17.67
2018-12-19T22:52:50.639Z,14.43
2018-12-19T22:55:19.053Z,18.87
2018-12-19T22:57:47.535Z,16.23
2018-12-19T23:00:17.184Z,14.87
2018-12-19T23:02:51.531Z,15.33
2018-12-19T23:05:25.487Z,14.77
2018-12-19T23:07:54.043Z,12.77
2018-12-19T23:10:22.537Z,16.53
2018-12-19T23:12:51.049Z,15.33
2018-12-19T23:15:20.277Z,14.33
2018-12-19T23:17:48.868Z,15.07
2018-12-19T23:20:17.617Z,13.43
2018-12-19T23:22:46.147Z,17.77
2018-12-19T23:25:14.849Z,14.83
2018-12-19T23:27:43.377Z,13.03
2018-12-19T23:30:12.038Z,13.13
2018-12-19T23:32:40.488Z,11.43
2018-12-19T23:35:09.179Z,14.20
2018-12-19T23:37:37.827Z,12.17
2018-12-19T23:40:06.584Z,12.57
2018-12-19T23:42:35.182Z,12.63
2018-12-19T23:45:04.803Z,13.00
2018-12-19T23:47:35.939Z,10.73
2018-12-19T23:50:06.181Z,11.57
2018-12-19T23:52:34.787Z,11.00
2018-12-19T23:55:04.263Z,13.50
2018-12-19T23:57:33.955Z,10.87
